createdAt,value
2019-05-14T00:01:17.416Z,90.00
2019-05-14T00:03:45.620Z,89.80
2019-05-14T00:06:13.816Z,90.00
2019-05-14T00:08:42.056Z,90.40
2019-05-14T00:11:12.800Z,90.30
2019-05-14T00:13:41.285Z,90.30
2019-05-14T00:16:11.737Z,90.00
2019-05-14T00:18:41.754Z,90.20
2019-05-14T00:21:09.448Z,90.30
2019-05-14T00:23:37.656Z,90.50
2019-05-14T00:26:05.851Z,90.90
2019-05-14T00:28:34.056Z,90.50
2019-05-14T00:31:02.911Z,90.50
2019-05-14T00:33:31.668Z,90.70
2019-05-14T00:36:01.842Z,91.10
2019-05-14T00:38:31.564Z,90.60
2019-05-14T00:41:01.735Z,90.50
2019-05-14T00:43:32.049Z,90.20
2019-05-14T00:46:01.631Z,90.50
2019-05-14T00:48:31.875Z,90.80
2019-05-14T00:51:02.177Z,90.90
2019-05-14T00:53:32.010Z,90.90
2019-05-14T00:56:02.200Z,90.90
2019-05-14T00:58:31.173Z,91.30
2019-05-14T01:01:01.461Z,91.30
2019-05-14T01:03:29.312Z,91.40
2019-05-14T01:05:57.503Z,91.30
2019-05-14T01:08:25.708Z,91.10
2019-05-14T01:10:53.939Z,91.30
2019-05-14T01:13:22.169Z,91.20
2019-05-14T01:15:52.101Z,91.30
2019-05-14T01:18:21.900Z,91.20
2019-05-14T01:20:51.924Z,91.00
2019-05-14T01:23:21.652Z,91.40
2019-05-14T01:25:51.738Z,91.60
2019-05-14T01:28:21.634Z,91.60
2019-05-14T01:30:51.787Z,91.80
2019-05-14T01:33:21.239Z,92.20
2019-05-14T01:35:51.485Z,92.60
2019-05-14T01:38:21.917Z,92.60
2019-05-14T01:40:49.558Z,92.70
2019-05-14T01:43:17.790Z,92.80
2019-05-14T01:45:45.984Z,92.90
2019-05-14T01:48:14.214Z,93.10
2019-05-14T01:50:42.436Z,93.10
2019-05-14T01:53:11.500Z,93.30
2019-05-14T01:55:41.497Z,93.50
2019-05-14T01:58:11.504Z,93.10
2019-05-14T02:00:41.610Z,92.90
2019-05-14T02:03:11.986Z,93.00
2019-05-14T02:05:41.591Z,93.20
2019-05-14T02:08:11.966Z,93.30
2019-05-14T02:10:41.804Z,93.50
2019-05-14T02:13:12.119Z,93.50
2019-05-14T02:15:42.416Z,93.60
2019-05-14T02:18:11.146Z,93.70
2019-05-14T02:20:41.337Z,93.80
2019-05-14T02:23:09.260Z,93.90
2019-05-14T02:25:37.464Z,93.90
2019-05-14T02:28:05.664Z,93.80
2019-05-14T02:30:48.280Z,93.80
2019-05-14T02:33:03.814Z,93.70
2019-05-14T02:35:32.010Z,93.80
2019-05-14T02:38:00.282Z,93.70
2019-05-14T02:40:29.445Z,93.90
2019-05-14T02:42:59.362Z,93.70
2019-05-14T02:45:30.246Z,93.70
2019-05-14T02:48:00.440Z,93.80
2019-05-14T02:50:29.556Z,93.70
2019-05-14T02:52:59.947Z,93.80
2019-05-14T02:55:29.904Z,93.90
2019-05-14T02:57:59.801Z,93.90
2019-05-14T03:00:30.066Z,93.90
2019-05-14T03:02:59.840Z,94.00
2019-05-14T03:05:29.542Z,94.10
2019-05-14T03:07:59.800Z,94.20
2019-05-14T03:10:30.091Z,94.40
2019-05-14T03:12:59.080Z,94.50
2019-05-14T03:15:29.100Z,94.70
2019-05-14T03:17:59.645Z,94.30
2019-05-14T03:20:28.859Z,94.20
2019-05-14T03:23:05.005Z,94.20
2019-05-14T03:25:29.703Z,94.20
2019-05-14T03:27:59.632Z,94.20
2019-05-14T03:30:31.559Z,94.20
2019-05-14T03:33:01.959Z,94.30
2019-05-14T03:35:35.383Z,94.50
2019-05-14T03:37:56.293Z,94.70
2019-05-14T03:40:24.494Z,94.70
2019-05-14T03:42:52.685Z,94.60
2019-05-14T03:45:20.889Z,94.60
2019-05-14T03:47:50.394Z,94.70
2019-05-14T03:50:19.274Z,94.80
2019-05-14T03:52:49.918Z,94.90
2019-05-14T03:55:20.269Z,94.90
2019-05-14T03:57:50.108Z,95.00
2019-05-14T04:00:20.619Z,95.10
2019-05-14T04:02:49.156Z,95.20
2019-05-14T04:05:19.765Z,95.10
2019-05-14T04:07:50.321Z,95.10
2019-05-14T04:10:19.463Z,95.00
2019-05-14T04:12:49.136Z,94.90
2019-05-14T04:15:19.271Z,94.70
2019-05-14T04:17:50.126Z,94.70
2019-05-14T04:20:19.665Z,94.30
2019-05-14T04:22:50.100Z,94.10
2019-05-14T04:25:19.488Z,94.50
2019-05-14T04:27:49.431Z,94.50
2019-05-14T04:30:23.144Z,94.60
2019-05-14T04:32:50.578Z,94.60
2019-05-14T04:35:20.103Z,94.50
2019-05-14T04:37:49.699Z,94.50
2019-05-14T04:40:18.941Z,94.30
2019-05-14T04:42:50.046Z,94.30
2019-05-14T04:45:19.664Z,93.90
2019-05-14T04:47:49.784Z,94.10
2019-05-14T04:50:19.860Z,93.50
2019-05-14T04:52:49.436Z,92.40
2019-05-14T04:55:20.189Z,92.30
2019-05-14T04:57:49.821Z,93.10
2019-05-14T05:00:19.891Z,92.10
2019-05-14T05:02:49.745Z,90.90
2019-05-14T05:05:19.390Z,91.00
2019-05-14T05:07:49.276Z,91.20
2019-05-14T05:10:19.255Z,90.50
2019-05-14T05:12:48.620Z,90.30
2019-05-14T05:15:19.015Z,90.80
2019-05-14T05:17:51.862Z,91.70
2019-05-14T05:20:19.076Z,91.50
2019-05-14T05:22:48.376Z,91.20
2019-05-14T05:25:16.116Z,90.80
2019-05-14T05:27:44.321Z,89.60
2019-05-14T05:30:12.515Z,90.20
2019-05-14T05:32:40.725Z,87.40
2019-05-14T05:35:09.605Z,85.80
2019-05-14T05:37:38.559Z,84.60
2019-05-14T05:40:08.958Z,84.60
2019-05-14T05:42:38.541Z,83.50
2019-05-14T05:45:08.100Z,84.80
2019-05-14T05:47:38.836Z,88.50
2019-05-14T05:50:08.689Z,86.80
2019-05-14T05:52:38.778Z,86.30
2019-05-14T05:55:08.989Z,84.90
2019-05-14T05:57:39.243Z,81.40
2019-05-14T06:00:09.471Z,80.80
2019-05-14T06:02:39.939Z,84.40
2019-05-14T06:05:08.189Z,77.30
2019-05-14T06:07:36.420Z,79.80
2019-05-14T06:10:08.046Z,80.60
2019-05-14T06:12:38.589Z,78.90
2019-05-14T06:15:08.655Z,79.60
2019-05-14T06:17:38.855Z,76.50
2019-05-14T06:20:08.529Z,73.80
2019-05-14T06:22:38.471Z,71.70
2019-05-14T06:25:11.047Z,74.40
2019-05-14T06:27:38.029Z,75.30
2019-05-14T06:30:09.130Z,73.90
2019-05-14T06:32:38.599Z,69.80
2019-05-14T06:35:08.853Z,68.90
2019-05-14T06:37:38.563Z,71.10
2019-05-14T06:40:08.872Z,65.90
2019-05-14T06:42:39.499Z,64.70
2019-05-14T06:45:09.009Z,67.40
2019-05-14T06:47:38.228Z,62.80
2019-05-14T06:50:08.573Z,62.10
2019-05-14T06:52:38.602Z,64.10
2019-05-14T06:55:08.878Z,63.80
2019-05-14T06:57:39.115Z,62.30
2019-05-14T07:00:08.309Z,64.00
2019-05-14T07:02:42.644Z,60.50
2019-05-14T07:05:09.543Z,62.10
2019-05-14T07:07:40.491Z,62.00
2019-05-14T07:10:09.027Z,56.50
2019-05-14T07:12:38.768Z,57.40
2019-05-14T07:15:09.313Z,58.10
2019-05-14T07:17:38.457Z,56.00
2019-05-14T07:20:09.001Z,54.80
2019-05-14T07:22:38.900Z,53.40
2019-05-14T07:25:09.927Z,54.10
2019-05-14T07:27:39.179Z,50.30
2019-05-14T07:30:08.951Z,50.40
2019-05-14T07:32:39.589Z,51.20
2019-05-14T07:35:09.104Z,49.40
2019-05-14T07:37:39.636Z,48.90
2019-05-14T07:40:08.515Z,49.10
2019-05-14T07:42:38.387Z,48.30
2019-05-14T07:45:09.360Z,46.10
2019-05-14T07:47:38.787Z,45.50
2019-05-14T07:50:09.738Z,45.70
2019-05-14T07:52:45.489Z,43.80
2019-05-14T07:55:09.229Z,46.20
2019-05-14T07:57:39.248Z,46.40
2019-05-14T08:00:08.726Z,44.40
2019-05-14T08:02:37.994Z,45.00
2019-05-14T08:05:08.625Z,47.30
2019-05-14T08:07:38.622Z,48.70
2019-05-14T08:10:09.052Z,46.60
2019-05-14T08:12:39.187Z,46.00
2019-05-14T08:15:15.425Z,45.10
2019-05-14T08:17:38.800Z,45.40
2019-05-14T08:20:08.976Z,46.00
2019-05-14T08:22:38.334Z,48.00
2019-05-14T08:25:08.561Z,48.90
2019-05-14T08:27:38.824Z,45.60
2019-05-14T08:30:08.985Z,46.70
2019-05-14T08:32:39.037Z,45.00
2019-05-14T08:35:09.009Z,44.30
2019-05-14T08:37:38.729Z,44.50
2019-05-14T08:40:09.477Z,46.10
2019-05-14T08:42:38.290Z,46.50
2019-05-14T08:45:10.618Z,47.80
2019-05-14T08:47:39.017Z,49.80
2019-05-14T08:50:09.210Z,48.50
2019-05-14T08:52:39.016Z,49.20
2019-05-14T08:55:13.047Z,47.10
2019-05-14T08:57:38.776Z,46.70
2019-05-14T09:00:13.556Z,47.20
2019-05-14T09:02:39.104Z,46.50
2019-05-14T09:05:10.238Z,47.00
2019-05-14T09:07:38.392Z,49.20
2019-05-14T09:10:08.692Z,52.10
2019-05-14T09:12:38.854Z,54.00
2019-05-14T09:15:09.668Z,56.40
2019-05-14T09:17:39.060Z,58.00
2019-05-14T09:20:10.924Z,60.20
2019-05-14T09:22:39.559Z,61.60
2019-05-14T09:25:08.462Z,62.60
2019-05-14T09:27:38.804Z,63.50
2019-05-14T09:30:09.697Z,62.10
2019-05-14T09:32:38.818Z,59.60
2019-05-14T09:35:09.579Z,58.40
2019-05-14T09:37:39.426Z,59.70
2019-05-14T09:40:08.770Z,59.90
2019-05-14T09:42:39.306Z,59.00
2019-05-14T09:45:11.217Z,61.10
2019-05-14T09:47:38.747Z,59.80
2019-05-14T09:50:16.600Z,60.60
2019-05-14T09:52:39.134Z,62.80
2019-05-14T09:55:09.396Z,63.70
2019-05-14T09:57:38.798Z,62.40
2019-05-14T10:00:09.054Z,59.70
2019-05-14T10:02:39.363Z,55.80
2019-05-14T10:05:09.075Z,54.50
2019-05-14T10:07:39.103Z,51.90
2019-05-14T10:10:08.710Z,50.40
2019-05-14T10:12:47.903Z,48.80
2019-05-14T10:15:08.809Z,48.20
2019-05-14T10:17:39.351Z,46.20
2019-05-14T10:20:08.785Z,44.80
2019-05-14T10:22:39.509Z,45.10
2019-05-14T10:25:09.042Z,44.30
2019-05-14T10:27:36.926Z,42.00
2019-05-14T10:30:09.926Z,42.60
2019-05-14T10:32:39.684Z,41.40
2019-05-14T10:35:08.547Z,40.80
2019-05-14T10:37:39.826Z,42.10
2019-05-14T10:40:10.443Z,42.30
2019-05-14T10:42:40.519Z,40.00
2019-05-14T10:45:12.509Z,38.90
2019-05-14T10:47:38.945Z,35.20
2019-05-14T10:50:13.390Z,37.90
2019-05-14T10:52:39.551Z,39.30
2019-05-14T10:55:08.006Z,38.80
2019-05-14T10:57:36.419Z,40.60
2019-05-14T11:00:08.950Z,38.10
2019-05-14T11:02:38.544Z,37.70
2019-05-14T11:05:06.210Z,39.30
2019-05-14T11:07:34.406Z,39.60
2019-05-14T11:10:02.680Z,39.50
2019-05-14T11:12:30.957Z,39.80
2019-05-14T11:14:59.172Z,40.40
2019-05-14T11:17:29.078Z,39.70
2019-05-14T11:19:58.698Z,39.50
2019-05-14T11:22:28.847Z,38.70
2019-05-14T11:24:59.064Z,37.80
2019-05-14T11:27:29.070Z,36.60
2019-05-14T11:29:58.637Z,35.60
2019-05-14T11:32:29.094Z,34.90
2019-05-14T11:34:59.141Z,36.10
2019-05-14T11:37:28.169Z,35.80
2019-05-14T11:39:58.089Z,36.80
2019-05-14T11:42:31.166Z,35.30
2019-05-14T11:44:58.265Z,36.80
2019-05-14T11:47:26.480Z,36.90
2019-05-14T11:49:54.731Z,36.70
2019-05-14T11:52:22.910Z,37.10
2019-05-14T11:54:51.112Z,37.50
2019-05-14T11:57:19.477Z,38.00
2019-05-14T11:59:47.803Z,37.60
2019-05-14T12:02:18.641Z,37.10
2019-05-14T12:04:45.937Z,37.60
2019-05-14T12:07:14.136Z,36.40
2019-05-14T12:09:42.337Z,36.20
2019-05-14T12:12:12.139Z,36.50
2019-05-14T12:14:40.541Z,39.00
2019-05-14T12:17:09.585Z,38.30
2019-05-14T12:19:39.376Z,38.90
2019-05-14T12:22:11.559Z,38.50
2019-05-14T12:24:38.765Z,40.00
2019-05-14T12:27:08.810Z,41.40
2019-05-14T12:29:39.674Z,42.30
2019-05-14T12:32:11.914Z,39.70
2019-05-14T12:34:38.762Z,38.30
2019-05-14T12:37:08.959Z,38.10
2019-05-14T12:39:36.704Z,37.30
2019-05-14T12:42:04.908Z,37.00
2019-05-14T12:44:33.150Z,35.00
2019-05-14T12:47:01.346Z,33.80
2019-05-14T12:49:29.552Z,33.40
2019-05-14T12:51:59.065Z,34.30
2019-05-14T12:54:29.649Z,35.30
2019-05-14T12:56:57.701Z,38.60
2019-05-14T12:59:25.901Z,37.60
2019-05-14T13:01:54.100Z,35.60
2019-05-14T13:04:22.367Z,37.80
2019-05-14T13:06:50.654Z,38.50
2019-05-14T13:09:21.596Z,37.20
2019-05-14T13:11:48.790Z,36.10
2019-05-14T13:14:16.996Z,35.90
2019-05-14T13:16:45.209Z,37.60
2019-05-14T13:19:13.462Z,36.00
2019-05-14T13:21:41.674Z,33.50
2019-05-14T13:24:09.910Z,34.80
2019-05-14T13:26:39.045Z,34.00
2019-05-14T13:29:10.728Z,34.00
2019-05-14T13:31:37.424Z,32.90
2019-05-14T13:34:05.718Z,31.50
2019-05-14T13:36:33.924Z,29.80
2019-05-14T13:39:02.135Z,29.60
2019-05-14T13:41:30.357Z,31.50
2019-05-14T13:43:58.970Z,31.30
2019-05-14T13:46:28.644Z,31.70
2019-05-14T13:48:59.123Z,32.00
2019-05-14T13:51:32.357Z,31.90
2019-05-14T13:53:58.949Z,32.10
2019-05-14T13:56:28.370Z,31.90
2019-05-14T13:58:59.170Z,31.40
2019-05-14T14:01:29.494Z,32.90
2019-05-14T14:04:06.457Z,33.20
2019-05-14T14:06:26.561Z,35.60
2019-05-14T14:08:54.862Z,39.60
2019-05-14T14:11:23.073Z,41.40
2019-05-14T14:13:51.286Z,40.40
2019-05-14T14:16:19.951Z,39.90
2019-05-14T14:18:50.142Z,41.30
2019-05-14T14:21:19.602Z,40.80
2019-05-14T14:23:49.525Z,40.30
2019-05-14T14:26:18.519Z,40.60
2019-05-14T14:28:49.305Z,41.60
2019-05-14T14:31:18.876Z,40.30
2019-05-14T14:33:48.782Z,39.00
2019-05-14T14:36:19.569Z,40.50
2019-05-14T14:38:49.162Z,41.70
2019-05-14T14:41:19.063Z,40.30
2019-05-14T14:43:52.033Z,41.20
2019-05-14T14:46:16.495Z,40.30
2019-05-14T14:48:49.055Z,38.80
2019-05-14T14:51:18.932Z,41.00
2019-05-14T14:53:57.742Z,42.20
2019-05-14T14:56:16.175Z,42.50
2019-05-14T14:58:44.948Z,44.40
2019-05-14T15:01:13.157Z,45.80
2019-05-14T15:03:41.369Z,46.40
2019-05-14T15:06:09.958Z,46.30
2019-05-14T15:08:38.926Z,47.00
2019-05-14T15:11:08.569Z,47.90
2019-05-14T15:13:39.119Z,46.70
2019-05-14T15:16:12.828Z,46.40
2019-05-14T15:18:38.652Z,46.90
2019-05-14T15:21:09.468Z,46.70
2019-05-14T15:23:42.259Z,47.20
2019-05-14T15:26:11.580Z,47.80
2019-05-14T15:28:38.635Z,49.80
2019-05-14T15:31:08.707Z,52.60
2019-05-14T15:33:36.728Z,55.00
2019-05-14T15:36:04.937Z,55.70
2019-05-14T15:38:33.180Z,56.80
2019-05-14T15:41:01.378Z,57.00
2019-05-14T15:43:29.580Z,57.10
2019-05-14T15:45:58.932Z,57.00
2019-05-14T15:48:27.188Z,56.00
2019-05-14T15:50:55.384Z,56.90
2019-05-14T15:53:23.592Z,55.80
2019-05-14T15:55:51.808Z,55.60
2019-05-14T15:58:21.502Z,55.60
2019-05-14T16:00:50.020Z,56.40
2019-05-14T16:03:18.807Z,57.30
2019-05-14T16:05:48.815Z,57.50
2019-05-14T16:08:18.853Z,57.60
2019-05-14T16:10:47.126Z,58.40
2019-05-14T16:13:15.332Z,57.50
2019-05-14T16:15:43.732Z,58.60
2019-05-14T16:18:18.591Z,58.80
2019-05-14T16:20:42.023Z,59.40
2019-05-14T16:23:10.978Z,59.90
2019-05-14T16:25:39.430Z,60.70
2019-05-14T16:28:08.788Z,60.50
2019-05-14T16:30:39.614Z,61.80
2019-05-14T16:33:09.149Z,63.10
2019-05-14T16:35:39.103Z,63.50
2019-05-14T16:38:08.357Z,61.10
2019-05-14T16:40:39.250Z,62.10
2019-05-14T16:43:06.625Z,62.10
2019-05-14T16:45:34.897Z,65.10
2019-05-14T16:48:03.129Z,63.90
2019-05-14T16:50:31.316Z,63.20
2019-05-14T16:52:59.532Z,62.40
2019-05-14T16:55:30.513Z,61.00
2019-05-14T16:57:58.278Z,59.00
2019-05-14T17:00:29.163Z,60.30
2019-05-14T17:02:58.393Z,61.60
2019-05-14T17:05:28.862Z,64.90
2019-05-14T17:07:58.559Z,62.70
2019-05-14T17:10:28.426Z,62.30
2019-05-14T17:12:57.486Z,59.20
2019-05-14T17:15:28.596Z,58.10
2019-05-14T17:17:59.427Z,59.00
2019-05-14T17:20:26.037Z,60.00
2019-05-14T17:22:54.278Z,58.70
2019-05-14T17:25:27.347Z,58.20
2019-05-14T17:27:52.425Z,58.30
2019-05-14T17:30:20.671Z,58.60
2019-05-14T17:32:49.520Z,59.70
2019-05-14T17:35:19.568Z,59.40
2019-05-14T17:37:48.343Z,59.90
2019-05-14T17:40:16.659Z,58.90
2019-05-14T17:42:44.861Z,59.40
2019-05-14T17:45:13.103Z,59.40
2019-05-14T17:47:41.300Z,59.40
2019-05-14T17:50:10.409Z,60.70
2019-05-14T17:52:43.226Z,61.50
2019-05-14T17:55:11.996Z,62.50
2019-05-14T17:57:46.214Z,61.80
2019-05-14T18:00:09.455Z,62.10
2019-05-14T18:02:37.864Z,62.50
2019-05-14T18:05:08.560Z,61.70
2019-05-14T18:07:36.027Z,62.30
2019-05-14T18:10:08.775Z,62.70
2019-05-14T18:12:39.308Z,62.90
2019-05-14T18:15:08.553Z,63.10
2019-05-14T18:17:38.961Z,63.00
2019-05-14T18:20:08.456Z,63.10
2019-05-14T18:22:42.197Z,62.50
2019-05-14T18:25:06.892Z,62.80
2019-05-14T18:27:35.090Z,63.90
2019-05-14T18:30:03.864Z,63.30
2019-05-14T18:32:32.060Z,64.20
2019-05-14T18:35:00.293Z,64.80
2019-05-14T18:37:28.992Z,63.60
2019-05-14T18:39:58.607Z,63.00
2019-05-14T18:42:29.545Z,64.00
2019-05-14T18:44:59.018Z,64.30
2019-05-14T18:47:29.066Z,63.10
2019-05-14T18:49:59.328Z,63.00
2019-05-14T18:52:29.431Z,63.60
2019-05-14T18:54:58.924Z,65.00
2019-05-14T18:57:28.516Z,63.90
2019-05-14T18:59:56.490Z,64.10
2019-05-14T19:02:24.680Z,64.90
2019-05-14T19:04:52.880Z,65.20
2019-05-14T19:07:21.072Z,66.60
2019-05-14T19:09:49.553Z,67.40
2019-05-14T19:12:19.031Z,68.10
2019-05-14T19:14:49.344Z,68.20
2019-05-14T19:17:18.715Z,69.10
2019-05-14T19:19:48.233Z,70.00
2019-05-14T19:22:16.600Z,70.20
2019-05-14T19:24:44.800Z,70.20
2019-05-14T19:27:12.992Z,70.50
2019-05-14T19:29:41.198Z,71.60
2019-05-14T19:32:09.437Z,71.20
2019-05-14T19:34:38.196Z,72.30
2019-05-14T19:37:08.273Z,73.00
2019-05-14T19:39:38.389Z,73.30
2019-05-14T19:42:08.432Z,73.20
2019-05-14T19:44:36.284Z,73.40
2019-05-14T19:47:04.480Z,74.20
2019-05-14T19:49:32.691Z,74.70
2019-05-14T19:52:00.891Z,74.80
2019-05-14T19:54:29.357Z,74.90
2019-05-14T19:57:00.729Z,76.10
2019-05-14T19:59:28.743Z,76.30
2019-05-14T20:01:58.902Z,77.10
2019-05-14T20:04:29.181Z,77.60
2019-05-14T20:06:56.985Z,78.00
2019-05-14T20:09:25.190Z,78.10
2019-05-14T20:11:53.423Z,78.60
2019-05-14T20:14:21.620Z,79.60
2019-05-14T20:16:49.820Z,80.50
2019-05-14T20:19:19.320Z,80.80
2019-05-14T20:21:48.159Z,80.90
2019-05-14T20:24:18.721Z,81.30
2019-05-14T20:26:48.633Z,81.50
2019-05-14T20:29:16.368Z,82.00
2019-05-14T20:31:44.529Z,82.30
2019-05-14T20:34:12.744Z,82.80
2019-05-14T20:36:40.941Z,83.20
2019-05-14T20:39:09.174Z,83.40
2019-05-14T20:41:38.422Z,83.60
2019-05-14T20:44:06.876Z,84.10
2019-05-14T20:46:35.080Z,84.40
2019-05-14T20:49:03.276Z,85.10
2019-05-14T20:51:31.488Z,85.50
2019-05-14T20:53:59.675Z,86.10
2019-05-14T20:56:28.542Z,86.40
2019-05-14T20:58:58.780Z,86.50
2019-05-14T21:01:28.929Z,87.00
2019-05-14T21:03:59.045Z,87.70
2019-05-14T21:06:28.036Z,88.20
2019-05-14T21:08:58.313Z,88.30
2019-05-14T21:11:28.558Z,88.10
2019-05-14T21:13:58.136Z,88.50
2019-05-14T21:16:28.297Z,88.90
2019-05-14T21:18:56.036Z,89.80
2019-05-14T21:21:24.236Z,89.20
2019-05-14T21:23:52.436Z,89.50
2019-05-14T21:26:20.659Z,89.50
2019-05-14T21:28:48.874Z,90.00
2019-05-14T21:31:18.099Z,90.00
2019-05-14T21:33:48.799Z,90.00
2019-05-14T21:36:19.109Z,90.10
2019-05-14T21:38:48.982Z,90.10
2019-05-14T21:41:20.119Z,89.80
2019-05-14T21:43:46.214Z,89.50
2019-05-14T21:46:14.451Z,89.40
2019-05-14T21:48:42.641Z,89.80
2019-05-14T21:51:10.878Z,89.70
2019-05-14T21:53:41.223Z,89.60
2019-05-14T21:56:09.015Z,89.70
2019-05-14T21:58:38.765Z,89.80
2019-05-14T22:01:07.981Z,90.00
2019-05-14T22:03:36.189Z,90.00
2019-05-14T22:06:04.388Z,89.70
2019-05-14T22:08:32.588Z,90.10
2019-05-14T22:11:00.822Z,89.70
2019-05-14T22:13:29.009Z,89.60
2019-05-14T22:15:58.941Z,89.50
2019-05-14T22:18:27.883Z,89.80
2019-05-14T22:20:57.966Z,89.40
2019-05-14T22:23:26.244Z,89.10
2019-05-14T22:25:54.444Z,89.50
2019-05-14T22:28:22.646Z,89.50
2019-05-14T22:30:50.890Z,89.90
2019-05-14T22:33:19.195Z,89.90
2019-05-14T22:35:48.562Z,89.80
2019-05-14T22:38:20.024Z,89.90
2019-05-14T22:40:48.275Z,90.00
2019-05-14T22:43:18.318Z,89.90
2019-05-14T22:45:48.084Z,89.90
2019-05-14T22:48:18.455Z,90.00
2019-05-14T22:50:48.590Z,90.10
2019-05-14T22:53:16.253Z,90.10
2019-05-14T22:55:44.481Z,90.20
2019-05-14T22:58:24.537Z,90.10
2019-05-14T23:00:46.791Z,90.10
2019-05-14T23:03:12.630Z,90.00
2019-05-14T23:05:40.817Z,90.20
2019-05-14T23:08:09.095Z,90.30
2019-05-14T23:10:38.892Z,90.30
2019-05-14T23:13:09.360Z,90.20
2019-05-14T23:15:38.511Z,90.10
2019-05-14T23:18:08.559Z,90.00
2019-05-14T23:20:39.002Z,90.10
2019-05-14T23:23:09.061Z,90.40
2019-05-14T23:25:38.790Z,90.50
2019-05-14T23:28:08.497Z,90.60
2019-05-14T23:30:38.701Z,90.70
2019-05-14T23:33:06.570Z,90.70
2019-05-14T23:35:34.770Z,90.30
2019-05-14T23:38:03.002Z,90.50
2019-05-14T23:40:31.228Z,90.40
2019-05-14T23:42:59.421Z,90.50
2019-05-14T23:45:28.430Z,90.50
2019-05-14T23:47:58.536Z,90.50
2019-05-14T23:50:28.365Z,90.80
2019-05-14T23:52:56.698Z,90.70
2019-05-14T23:55:24.919Z,90.90
2019-05-14T23:57:53.150Z,90.80
